Time;durP1;ratioP1;P1;durP2;ratioP2;P2;SDS_P1;SDS_P2;PMS_P1;PMS_P2;Temp;Humidity;BMP_temperature;BMP_pressure;BME280_temperature;BME280_humidity;BME280_pressure;Samples;Min_cycle;Max_cycle;Signal;HPM_P1;HPM_P2
2022/04/24 00:02:27;;;;;;;42.73;12.88;;;;;;;9.86;100.00;89480.00;1685911;84;21042;-66
2022/04/24 00:04:55;;;;;;;47.67;14.20;;;;;;;9.86;100.00;87942.11;1685808;84;21251;-66
2022/04/24 00:07:24;;;;;;;46.50;13.15;;;;;;;9.85;100.00;87770.59;1686121;84;21076;-67
2022/04/24 00:09:51;;;;;;;44.18;12.58;;;;;;;9.86;100.00;84869.92;1685401;84;21085;-66
2022/04/24 00:12:18;;;;;;;48.48;12.88;;;;;;;9.83;100.00;85378.02;1685805;84;21097;-65
2022/04/24 00:14:47;;;;;;;28.90;12.13;;;;;;;9.77;100.00;86904.06;1685429;84;21101;-65
2022/04/24 00:17:16;;;;;;;43.65;12.78;;;;;;;9.71;100.00;87067.14;1685703;84;20990;-66
2022/04/24 00:19:44;;;;;;;37.78;12.23;;;;;;;9.68;100.00;84674.13;1685584;84;21384;-66
2022/04/24 00:22:11;;;;;;;43.30;12.95;;;;;;;9.66;100.00;83477.61;1685577;84;21065;-66
2022/04/24 00:24:39;;;;;;;45.45;12.63;;;;;;;9.64;100.00;81770.37;1685499;84;20982;-66
2022/04/24 00:27:08;;;;;;;49.58;14.38;;;;;;;9.64;100.00;80747.47;1685335;84;21057;-64
2022/04/24 00:29:36;;;;;;;43.90;13.35;;;;;;;9.63;100.00;79383.66;1686351;84;21258;-66
2022/04/24 00:32:05;;;;;;;44.33;13.08;;;;;;;9.63;100.00;77001.42;1685924;84;21061;-66
2022/04/24 00:34:33;;;;;;;46.02;13.40;;;;;;;9.64;100.00;77002.09;1686011;84;21390;-66
2022/04/24 00:37:01;;;;;;;46.08;13.53;;;;;;;9.62;100.00;76489.67;1685430;84;21521;-65
2022/04/24 00:39:28;;;;;;;52.00;16.02;;;;;;;9.60;100.00;76487.64;1686001;85;21026;-66
2022/04/24 00:41:55;;;;;;;37.90;13.58;;;;;;;9.59;100.00;76146.09;1685670;84;21261;-66
2022/04/24 00:44:24;;;;;;;38.65;13.20;;;;;;;9.60;100.00;74106.16;1685935;84;21408;-65
2022/04/24 00:47:17;;;;;;;35.80;12.63;;;;;;;9.58;100.00;74443.55;1683819;85;21129;-66
2022/04/24 00:49:45;;;;;;;48.68;13.85;;;;;;;9.53;100.00;75287.09;1685776;85;20995;-66
2022/04/24 00:52:14;;;;;;;51.45;13.45;;;;;;;9.51;100.00;73755.17;1685537;84;21515;-66
2022/04/24 00:54:42;;;;;;;42.85;14.83;;;;;;;9.49;100.00;72223.33;1685502;85;21215;-66
2022/04/24 00:57:10;;;;;;;44.30;13.25;;;;;;;9.50;100.00;70695.42;1685378;84;21586;-66
2022/04/24 00:59:39;;;;;;;44.83;14.13;;;;;;;9.53;100.00;67983.28;1685651;83;21527;-66
2022/04/24 01:02:06;;;;;;;55.35;14.68;;;;;;;9.56;100.00;64933.95;1682904;83;21479;-65
2022/04/24 01:04:36;;;;;;;46.13;14.33;;;;;;;9.60;100.00;63582.46;1683091;83;21626;-66
2022/04/24 01:07:04;;;;;;;58.58;15.50;;;;;;;9.64;100.00;63247.46;1682741;83;21109;-66
2022/04/24 01:09:34;;;;;;;45.17;15.13;;;;;;;9.66;100.00;62741.88;1683091;83;20930;-66
2022/04/24 01:12:05;;;;;;;52.38;16.17;;;;;;;9.71;100.00;62746.87;1682740;83;21400;-64
2022/04/24 01:14:34;;;;;;;49.18;15.83;;;;;;;9.73;100.00;63088.62;1683230;85;21333;-66
2022/04/24 01:17:03;;;;;;;42.00;14.83;;;;;;;9.75;100.00;64277.51;1682632;83;21117;-67
2022/04/24 01:19:31;;;;;;;48.60;13.43;;;;;;;9.75;100.00;67330.81;1683087;85;21183;-66
2022/04/24 01:21:59;;;;;;;38.00;14.33;;;;;;;9.70;100.00;73439.16;1682878;83;21555;-65
2022/04/24 01:24:29;;;;;;;35.68;13.83;;;;;;;9.65;100.00;78706.11;1683155;85;22513;-66
2022/04/24 01:26:56;;;;;;;45.43;16.07;;;;;;;9.63;100.00;78362.20;1682586;83;21068;-64
2022/04/24 01:29:23;;;;;;;66.17;17.60;;;;;;;9.62;100.00;76659.80;1682653;83;21511;-66
2022/04/24 01:31:50;;;;;;;46.00;15.90;;;;;;;9.65;100.00;75472.39;1682661;83;21888;-64
2022/04/24 01:34:19;;;;;;;37.98;14.40;;;;;;;9.65;100.00;75642.47;1682831;85;21054;-65
2022/04/24 01:36:46;;;;;;;41.42;14.20;;;;;;;9.66;100.00;76664.50;1682403;85;21011;-66
2022/04/24 01:39:15;;;;;;;38.50;13.62;;;;;;;9.65;100.00;76663.83;1682620;83;21121;-66
2022/04/24 01:41:44;;;;;;;29.80;13.03;;;;;;;9.66;100.00;78026.59;1682398;83;20967;-66
2022/04/24 01:44:12;;;;;;;42.05;14.65;;;;;;;9.66;100.00;80409.62;1682421;83;21611;-66
2022/04/24 01:46:41;;;;;;;39.98;14.25;;;;;;;9.64;100.00;82451.27;1682451;83;21041;-66
2022/04/24 01:49:10;;;;;;;29.20;13.58;;;;;;;9.64;100.00;84326.42;1682390;83;21114;-66
2022/04/24 01:51:38;;;;;;;33.63;13.45;;;;;;;9.62;100.00;87224.11;1683004;83;21020;-66
2022/04/24 01:54:06;;;;;;;27.82;12.23;;;;;;;9.61;100.00;90466.44;1682728;83;21118;-66
2022/04/24 01:56:33;;;;;;;28.87;12.37;;;;;;;9.60;100.00;92344.27;1683462;85;21357;-66
2022/04/24 01:59:00;;;;;;;25.12;11.45;;;;;;;9.57;100.00;94390.75;1683061;85;21139;-65
2022/04/24 02:01:28;;;;;;;21.45;11.45;;;;;;;9.56;100.00;96270.50;1683184;83;21090;-65
2022/04/24 02:03:55;;;;;;;22.20;11.20;;;;;;;9.55;100.00;99178.41;1682632;83;21073;-65
2022/04/24 02:06:23;;;;;;;25.88;10.85;;;;;;;9.53;100.00;99174.96;1682919;85;21073;-65
2022/04/24 02:08:52;;;;;;;28.90;11.60;;;;;;;9.54;100.00;96951.53;1682815;83;21033;-65
2022/04/24 02:11:20;;;;;;;36.17;12.47;;;;;;;9.55;100.00;96268.83;1682817;85;21480;-65
2022/04/24 02:13:48;;;;;;;35.17;13.65;;;;;;;9.56;100.00;96441.59;1683035;85;20995;-65
2022/04/24 02:16:16;;;;;;;30.05;13.20;;;;;;;9.52;100.00;100030.30;1683039;85;21125;-65
2022/04/24 02:18:44;;;;;;;27.60;12.93;;;;;;;9.48;100.00;101050.09;1683293;84;20967;-65
2022/04/24 02:21:12;;;;;;;37.93;14.80;;;;;;;9.40;100.00;96929.60;1682930;83;21242;-65
2022/04/24 02:23:40;;;;;;;40.33;15.85;;;;;;;9.34;100.00;90937.65;1683159;85;21010;-66
2022/04/24 02:26:08;;;;;;;32.73;14.13;;;;;;;9.29;100.00;87687.05;1682852;83;21062;-65
2022/04/24 02:28:37;;;;;;;37.98;13.95;;;;;;;9.24;100.00;84611.19;1683389;85;20982;-66
2022/04/24 02:31:05;;;;;;;34.10;14.47;;;;;;;9.19;100.00;82048.62;1682838;83;21132;-66
2022/04/24 02:33:34;;;;;;;31.42;13.60;;;;;;;9.14;100.00;78638.45;1660343;85;21834;-66
2022/04/24 02:36:01;;;;;;;36.55;15.65;;;;;;;9.06;100.00;77607.11;1683019;85;21076;-65
2022/04/24 02:38:30;;;;;;;27.95;13.28;;;;;;;9.02;100.00;74883.15;1683201;85;21101;-68
2022/04/24 02:40:57;;;;;;;30.30;13.98;;;;;;;8.96;100.00;67409.34;1682635;83;21109;-67
2022/04/24 02:43:25;;;;;;;33.55;14.15;;;;;;;8.92;100.00;63338.84;1682684;84;21456;-66
2022/04/24 02:45:55;;;;;;;28.40;14.50;;;;;;;8.86;100.00;61479.54;1682743;83;21247;-66
2022/04/24 02:48:27;;;;;;;41.58;15.70;;;;;;;8.82;100.00;56227.81;1682873;83;21088;-66
2022/04/24 02:50:54;;;;;;;31.00;13.83;;;;;;;8.80;100.00;52174.27;1682634;83;21520;-65
2022/04/24 02:53:22;;;;;;;32.88;15.20;;;;;;;8.79;100.00;48801.23;1682865;85;21458;-65
2022/04/24 02:55:49;;;;;;;38.17;15.65;;;;;;;8.76;100.00;42401.58;1682910;85;21066;-65
2022/04/24 02:58:19;;;;;;;36.03;15.88;;;;;;;8.77;100.00;37863.74;1682697;83;22758;-65
2022/04/24 03:00:50;;;;;;;39.35;15.85;;;;;;;8.78;100.00;34003.32;1682733;84;20987;-65
2022/04/24 03:03:21;;;;;;;33.08;16.00;;;;;;;8.78;100.00;32661.67;1682727;83;21045;-66
2022/04/24 03:05:49;;;;;;;39.48;16.25;;;;;;;8.78;100.00;32829.07;1682863;83;21038;-67
2022/04/24 03:08:17;;;;;;;40.63;17.07;;;;;;;8.77;100.00;32996.50;1683066;85;20998;-67
2022/04/24 03:10:45;;;;;;;46.15;18.10;;;;;;;8.78;100.00;32996.80;1683158;85;21175;-66
2022/04/24 03:13:12;;;;;;;37.67;17.32;;;;;;;8.77;100.00;32493.36;1682579;85;21106;-66
2022/04/24 03:15:41;;;;;;;41.48;18.02;;;;;;;8.77;100.00;32325.35;1683112;83;21019;-66
2022/04/24 03:18:10;;;;;;;45.12;18.07;;;;;;;8.79;100.00;31656.14;1682444;83;21165;-66
2022/04/24 03:20:37;;;;;;;36.48;17.73;;;;;;;8.79;100.00;30650.31;1682663;83;21014;-66
2022/04/24 03:23:05;;;;;;;37.45;17.23;;;;;;;8.82;100.00;30148.92;1681941;83;21093;-66
2022/04/24 03:25:33;;;;;;;39.23;18.62;;;;;;;8.86;100.00;28810.62;1682859;85;20966;-65
2022/04/24 03:28:02;;;;;;;43.00;18.85;;;;;;;8.87;100.00;27638.83;1682715;83;21058;-65
2022/04/24 03:30:29;;;;;;;35.90;18.00;;;;;;;8.92;100.00;26636.38;1683085;83;21098;-65
2022/04/24 03:32:58;;;;;;;41.02;17.92;;;;;;;8.96;100.00;26805.63;1682676;83;21069;-65
2022/04/24 03:35:26;;;;;;;32.88;17.87;;;;;;;9.00;100.00;27812.69;1683344;85;21238;-65
2022/04/24 03:37:54;;;;;;;42.00;19.37;;;;;;;9.03;100.00;29154.83;1683296;85;21255;-65
2022/04/24 03:40:21;;;;;;;33.08;16.65;;;;;;;9.08;100.00;31337.02;1683207;85;21113;-64
2022/04/24 03:42:50;;;;;;;33.55;16.60;;;;;;;9.13;100.00;32346.55;1683019;83;20951;-66
2022/04/24 03:45:19;;;;;;;40.45;18.57;;;;;;;9.17;100.00;34531.40;1682795;85;21093;-66
2022/04/24 03:47:49;;;;;;;39.95;19.32;;;;;;;9.22;100.00;38398.40;1682858;85;21936;-66
2022/04/24 03:50:19;;;;;;;32.85;16.32;;;;;;;9.27;100.00;40925.19;1682636;83;20997;-67
2022/04/24 03:52:46;;;;;;;39.45;19.05;;;;;;;9.35;100.00;43287.14;1682818;83;21495;-65
2022/04/24 03:55:13;;;;;;;33.73;17.45;;;;;;;9.43;100.00;48012.43;1682607;85;21109;-65
2022/04/24 03:57:42;;;;;;;30.62;15.90;;;;;;;9.51;100.00;51562.95;1683144;83;21471;-65
2022/04/24 04:00:12;;;;;;;41.73;18.15;;;;;;;9.59;100.00;57317.46;1682899;83;21519;-66
2022/04/24 04:02:46;;;;;;;34.13;17.65;;;;;;;9.66;100.00;64775.31;1683019;84;20943;-65
2022/04/24 04:05:20;;;;;;;37.83;18.27;;;;;;;9.74;100.00;71914.01;1683075;85;21231;-66
2022/04/24 04:07:45;;;;;;;32.65;18.05;;;;;;;9.85;100.00;80777.19;1682407;83;20990;-65
2022/04/24 04:10:13;;;;;;;35.58;18.25;;;;;;;9.95;100.00;93766.51;1682596;83;21686;-65
2022/04/24 04:12:41;;;;;;;31.25;17.02;;;;;;;10.04;100.00;103033.31;1683384;83;20947;-65
2022/04/24 04:15:10;;;;;;;33.08;17.50;;;;;;;10.19;100.00;116984.83;1682725;85;21053;-66
2022/04/24 04:17:39;;;;;;;32.17;16.27;;;;;;;10.28;100.00;147993.73;1683071;83;21022;-65
2022/04/24 04:20:11;;;;;;;31.80;16.50;;;;;;;10.38;100.00;150262.41;1682409;85;21097;-65
2022/04/24 04:22:52;;;;;;;31.30;15.45;;;;;;;10.49;100.00;150290.97;1682865;83;21022;-65
2022/04/24 04:25:21;;;;;;;27.55;15.00;;;;;;;10.62;100.00;150322.14;1683116;83;22310;-64
2022/04/24 04:27:49;;;;;;;32.67;16.00;;;;;;;10.74;100.00;150354.58;1682732;85;21440;-64
2022/04/24 04:30:17;;;;;;;34.25;15.53;;;;;;;10.85;100.00;150381.84;1682658;83;21534;-65
2022/04/24 04:32:46;;;;;;;25.57;15.13;;;;;;;10.92;100.00;150398.72;1683233;83;20954;-64
2022/04/24 04:35:13;;;;;;;38.42;16.50;;;;;;;11.04;100.00;150428.58;1682720;83;21050;-64
2022/04/24 04:37:40;;;;;;;26.80;14.85;;;;;;;11.17;100.00;150462.34;1682887;83;21918;-65
2022/04/24 04:40:11;;;;;;;29.23;14.30;;;;;;;11.33;100.00;150501.27;1682602;83;21069;-66
2022/04/24 04:42:39;;;;;;;25.20;13.93;;;;;;;11.51;100.00;150546.73;1683103;83;20996;-66
2022/04/24 04:45:09;;;;;;;29.20;14.87;;;;;;;11.63;100.00;150576.61;1682828;83;21055;-66
2022/04/24 04:47:37;;;;;;;23.05;14.00;;;;;;;11.73;100.00;150602.56;1683115;85;21488;-66
2022/04/24 04:50:07;;;;;;;26.60;13.72;;;;;;;11.89;100.00;150641.53;1682579;85;21120;-66
2022/04/24 04:52:35;;;;;;;26.62;13.58;;;;;;;12.00;100.00;150670.09;1682967;83;21019;-66
2022/04/24 04:55:03;;;;;;;25.00;12.40;;;;;;;12.01;100.00;150672.73;1682825;83;21520;-65
2022/04/24 04:57:32;;;;;;;22.13;12.88;;;;;;;12.09;100.00;150690.95;1683030;83;21857;-66
2022/04/24 04:59:59;;;;;;;21.05;11.28;;;;;;;12.18;100.00;150714.31;1682604;83;21129;-66
2022/04/24 05:02:26;;;;;;;19.48;11.90;;;;;;;12.27;100.00;150737.73;1687764;84;21272;-66
2022/04/24 05:04:55;;;;;;;20.57;11.85;;;;;;;12.42;100.00;150774.08;1690570;84;21041;-65
2022/04/24 05:07:23;;;;;;;22.00;13.05;;;;;;;12.57;100.00;150811.75;1690578;83;21145;-66
2022/04/24 05:09:50;;;;;;;21.77;12.20;;;;;;;12.71;100.00;150846.84;1690580;83;21086;-65
2022/04/24 05:12:19;;;;;;;24.43;13.20;;;;;;;12.85;100.00;150883.25;1690579;84;21100;-65
2022/04/24 05:14:46;;;;;;;20.37;11.78;;;;;;;12.94;100.00;150905.36;1690557;83;21254;-65
2022/04/24 05:17:13;;;;;;;23.22;12.65;;;;;;;13.09;100.00;150941.77;1690114;83;21082;-68
2022/04/24 05:19:42;;;;;;;21.45;10.95;;;;;;;13.30;99.87;150995.05;1690773;83;21014;-66
2022/04/24 05:22:10;;;;;;;19.30;12.07;;;;;;;13.47;98.86;151038.00;1690213;84;21098;-66
2022/04/24 05:24:37;;;;;;;19.80;12.15;;;;;;;13.61;96.50;151073.14;1690732;83;21026;-65
2022/04/24 05:27:06;;;;;;;18.45;11.93;;;;;;;13.77;96.71;151112.13;1690527;83;21507;-66
2022/04/24 05:29:34;;;;;;;20.12;11.57;;;;;;;13.94;95.88;151156.38;1690810;83;21490;-66
2022/04/24 05:32:03;;;;;;;19.25;11.12;;;;;;;14.16;95.07;151211.00;1690736;83;21535;-65
2022/04/24 05:34:32;;;;;;;21.77;11.00;;;;;;;14.37;94.36;151263.05;1690667;84;21511;-66
2022/04/24 05:36:59;;;;;;;17.17;10.82;;;;;;;14.60;93.48;151322.91;1690386;84;21657;-66
2022/04/24 05:39:27;;;;;;;20.45;10.72;;;;;;;14.74;90.65;151358.09;1690852;84;22059;-65
2022/04/24 05:41:55;;;;;;;18.62;10.68;;;;;;;14.85;90.30;151385.42;1690461;83;21252;-66
2022/04/24 05:44:22;;;;;;;22.22;11.33;;;;;;;15.01;88.99;151424.48;1690325;84;21642;-65
2022/04/24 05:46:49;;;;;;;16.60;8.85;;;;;;;15.17;88.11;151464.83;1690338;84;21479;-66
2022/04/24 05:49:18;;;;;;;17.57;9.90;;;;;;;15.34;86.92;151507.78;1690048;83;21069;-66
2022/04/24 05:51:46;;;;;;;14.60;8.88;;;;;;;15.45;84.81;151536.45;1690467;84;21137;-66
2022/04/24 05:54:15;;;;;;;15.55;9.30;;;;;;;15.49;83.49;151544.25;1690030;84;21179;-65
2022/04/24 05:56:42;;;;;;;13.00;8.73;;;;;;;15.56;83.07;151563.80;1690068;83;21096;-65
2022/04/24 05:59:09;;;;;;;17.98;9.13;;;;;;;15.61;82.72;151576.81;1689898;83;21093;-65
2022/04/24 06:01:38;;;;;;;15.90;9.10;;;;;;;15.73;81.89;151605.48;1689966;83;21283;-65
2022/04/24 06:04:07;;;;;;;15.45;9.18;;;;;;;15.84;80.51;151632.84;1685419;84;21404;-66
2022/04/24 06:06:35;;;;;;;13.10;8.05;;;;;;;15.76;79.29;151614.56;1685714;84;21025;-66
2022/04/24 06:09:03;;;;;;;12.40;7.08;;;;;;;15.72;78.36;151602.87;1685285;84;21058;-66
2022/04/24 06:11:31;;;;;;;12.78;8.05;;;;;;;15.68;79.11;151593.75;1685740;84;21002;-66
2022/04/24 06:14:00;;;;;;;14.30;8.55;;;;;;;15.80;79.05;151623.70;1685439;84;21064;-66
2022/04/24 06:16:29;;;;;;;14.83;8.30;;;;;;;15.87;79.07;151641.92;1685620;84;21168;-66
2022/04/24 06:18:58;;;;;;;12.28;8.38;;;;;;;15.96;79.00;151662.84;1685823;85;21053;-66
2022/04/24 06:21:26;;;;;;;12.88;8.23;;;;;;;16.11;78.56;151700.61;1685618;84;21005;-66
2022/04/24 06:23:55;;;;;;;15.05;7.65;;;;;;;16.22;77.45;151727.97;1685362;84;21030;-65
2022/04/24 06:26:22;;;;;;;11.60;7.90;;;;;;;16.29;77.42;151747.52;1685464;85;21065;-65
2022/04/24 06:28:50;;;;;;;11.28;7.58;;;;;;;16.41;77.38;151776.16;1685554;84;21139;-65
2022/04/24 06:31:18;;;;;;;12.30;7.62;;;;;;;16.54;76.49;151810.06;1685334;84;21005;-66
2022/04/24 06:33:47;;;;;;;12.37;7.62;;;;;;;16.66;76.16;151840.03;1685803;84;21468;-66
2022/04/24 06:36:14;;;;;;;12.33;6.65;;;;;;;16.84;75.03;151884.34;1685456;84;21061;-66
2022/04/24 06:38:41;;;;;;;11.43;7.10;;;;;;;16.93;74.64;151906.52;1686048;84;20934;-65
2022/04/24 06:41:09;;;;;;;9.43;6.28;;;;;;;17.09;73.96;151946.97;1685650;85;21247;-67
2022/04/24 06:43:37;;;;;;;10.70;6.08;;;;;;;17.22;71.96;151980.81;1685871;84;21022;-67
2022/04/24 06:46:05;;;;;;;13.08;6.45;;;;;;;17.26;71.31;151989.97;1685501;84;21069;-67
2022/04/24 06:48:33;;;;;;;9.95;6.28;;;;;;;17.24;70.50;151986.08;1686066;84;20985;-67
2022/04/24 06:51:01;;;;;;;8.50;5.97;;;;;;;17.28;70.20;151995.17;1685701;84;21673;-67
2022/04/24 06:53:29;;;;;;;10.03;6.12;;;;;;;17.39;70.00;152023.89;1685696;84;21284;-66
2022/04/24 06:55:57;;;;;;;10.88;5.60;;;;;;;17.52;69.00;152055.16;1685941;84;21033;-67
2022/04/24 06:58:25;;;;;;;7.87;5.15;;;;;;;17.67;68.77;152092.95;1685563;84;21149;-66
2022/04/24 07:00:53;;;;;;;8.00;5.37;;;;;;;17.86;68.03;152141.25;1685618;84;20967;-66
2022/04/24 07:03:24;;;;;;;9.43;6.17;;;;;;;18.05;67.73;152189.53;1689049;83;21057;-66
2022/04/24 07:05:56;;;;;;;6.85;5.20;;;;;;;18.22;65.12;152231.28;1691224;84;21700;-66
2022/04/24 07:08:24;;;;;;;7.00;5.53;;;;;;;18.24;65.24;152237.83;1690820;83;21037;-68
2022/04/24 07:10:53;;;;;;;10.65;6.03;;;;;;;18.39;65.51;152275.66;1690706;83;20982;-66
2022/04/24 07:13:22;;;;;;;11.03;6.28;;;;;;;18.60;65.33;152329.13;1661840;84;21065;-66
2022/04/24 07:15:51;;;;;;;9.28;5.60;;;;;;;18.83;64.85;152386.55;1690908;83;20942;-66
2022/04/24 07:18:19;;;;;;;9.25;6.12;;;;;;;19.00;63.86;152429.66;1690455;83;21220;-66
2022/04/24 07:20:48;;;;;;;9.58;6.03;;;;;;;19.12;63.33;152458.39;1690743;84;20958;-65
2022/04/24 07:23:15;;;;;;;8.38;5.65;;;;;;;19.20;62.58;152477.97;1690351;83;21076;-67
2022/04/24 07:25:46;;;;;;;8.88;5.60;;;;;;;19.27;62.53;152496.23;1690886;84;21449;-66
2022/04/24 07:28:16;;;;;;;10.18;5.80;;;;;;;19.41;62.07;152532.81;1690665;84;20993;-68
2022/04/24 07:30:43;;;;;;;10.45;5.80;;;;;;;19.56;61.27;152569.33;1690927;84;21263;-67
2022/04/24 07:33:12;;;;;;;8.60;6.00;;;;;;;19.66;60.28;152594.14;1690628;83;21097;-67
2022/04/24 07:35:40;;;;;;;10.25;6.40;;;;;;;19.62;59.78;152585.03;1690707;83;21026;-67
2022/04/24 07:38:08;;;;;;;9.18;6.30;;;;;;;19.54;59.16;152565.44;1690325;84;21626;-66
2022/04/24 07:40:37;;;;;;;11.28;6.00;;;;;;;19.47;59.50;152548.47;1690745;83;21506;-67
2022/04/24 07:43:09;;;;;;;13.05;6.83;;;;;;;19.54;59.71;152564.13;1690717;84;21017;-67
2022/04/24 07:45:41;;;;;;;12.37;7.42;;;;;;;19.57;59.08;152573.27;1690694;84;21043;-67
2022/04/24 07:48:10;;;;;;;16.05;8.08;;;;;;;19.56;59.85;152570.66;1690375;83;20986;-68
2022/04/24 07:50:39;;;;;;;12.13;7.55;;;;;;;19.68;60.19;152600.69;1691018;84;21570;-67
2022/04/24 07:53:08;;;;;;;15.28;8.03;;;;;;;19.84;59.85;152641.16;1691015;83;21073;-67
2022/04/24 07:55:37;;;;;;;11.83;7.55;;;;;;;19.96;59.58;152671.25;1690865;84;21129;-67
2022/04/24 07:58:05;;;;;;;11.12;6.75;;;;;;;20.08;59.17;152700.00;1690117;84;21041;-67
2022/04/24 08:00:34;;;;;;;10.08;6.97;;;;;;;20.15;58.77;152719.59;1690739;83;21059;-67
2022/04/24 08:03:10;;;;;;;10.88;6.70;;;;;;;20.26;58.38;152747.03;1686940;83;21049;-67
2022/04/24 08:05:48;;;;;;;10.60;6.65;;;;;;;20.29;57.40;152754.86;1683059;83;21511;-66
2022/04/24 08:08:18;;;;;;;8.68;5.80;;;;;;;20.24;57.49;152740.48;1682768;83;21810;-68
2022/04/24 08:10:53;;;;;;;10.13;6.12;;;;;;;20.25;57.24;152744.42;1682877;84;21002;-66
2022/04/24 08:13:21;;;;;;;9.20;6.00;;;;;;;20.23;57.23;152739.20;1682343;83;21046;-67
2022/04/24 08:15:50;;;;;;;10.03;6.28;;;;;;;20.25;57.17;152744.42;1682815;83;21006;-64
2022/04/24 08:18:19;;;;;;;10.50;6.45;;;;;;;20.32;56.96;152762.69;1682757;83;21049;-65
2022/04/24 08:20:46;;;;;;;11.20;7.45;;;;;;;20.33;56.92;152765.30;1683015;84;22083;-67
2022/04/24 08:23:15;;;;;;;15.48;8.50;;;;;;;20.37;57.16;152773.14;1682408;83;21145;-68
2022/04/24 08:25:43;;;;;;;16.82;9.95;;;;;;;20.37;57.01;152773.14;1683026;85;21019;-68
2022/04/24 08:28:12;;;;;;;14.38;9.18;;;;;;;20.25;57.00;152743.09;1683029;84;21006;-67
2022/04/24 08:30:42;;;;;;;17.12;10.40;;;;;;;20.08;57.05;152701.28;1683084;84;21026;-66
2022/04/24 08:33:10;;;;;;;16.82;10.05;;;;;;;19.92;57.51;152659.53;1683090;83;21222;-67
2022/04/24 08:35:37;;;;;;;17.85;9.48;;;;;;;19.85;57.85;152642.48;1682955;85;21562;-67
2022/04/24 08:38:05;;;;;;;17.48;9.78;;;;;;;19.73;57.89;152613.73;1682380;83;21013;-67
2022/04/24 08:40:33;;;;;;;17.35;9.85;;;;;;;19.60;58.06;152579.81;1683182;85;21610;-67
2022/04/24 08:43:01;;;;;;;15.15;10.03;;;;;;;19.40;58.27;152530.20;1683059;83;21483;-66
2022/04/24 08:45:30;;;;;;;15.70;10.08;;;;;;;19.18;58.88;152475.38;1682914;83;22086;-67
2022/04/24 08:47:59;;;;;;;17.40;10.40;;;;;;;19.03;59.55;152437.53;1682609;85;21613;-66
2022/04/24 08:50:29;;;;;;;15.98;9.80;;;;;;;18.94;60.08;152413.95;1682932;85;21026;-66
2022/04/24 08:53:01;;;;;;;18.17;11.18;;;;;;;18.92;60.58;152407.45;1683037;83;21014;-66
2022/04/24 08:55:29;;;;;;;19.42;11.28;;;;;;;18.96;60.88;152417.89;1682816;85;21069;-66
2022/04/24 08:57:56;;;;;;;19.73;11.20;;;;;;;18.98;60.66;152423.11;1683027;83;21233;-66
2022/04/24 09:00:24;;;;;;;20.17;11.63;;;;;;;18.98;60.80;152424.44;1682791;85;21050;-67
2022/04/24 09:02:53;;;;;;;20.23;12.15;;;;;;;19.01;60.75;152432.31;1684602;83;21026;-66
2022/04/24 09:05:21;;;;;;;21.95;12.70;;;;;;;19.01;60.68;152430.98;1690549;84;21315;-66
2022/04/24 09:07:52;;;;;;;17.10;11.45;;;;;;;18.95;60.74;152415.28;1690749;84;21034;-66
2022/04/24 09:10:19;;;;;;;17.73;11.48;;;;;;;18.89;61.17;152402.19;1690549;83;21530;-66
2022/04/24 09:12:54;;;;;;;17.92;11.33;;;;;;;18.97;61.16;152420.50;1690891;83;21015;-67
2022/04/24 09:15:23;;;;;;;15.15;10.43;;;;;;;19.05;61.23;152441.41;1690541;84;21045;-66
2022/04/24 09:18:02;;;;;;;15.63;10.68;;;;;;;19.22;61.12;152483.19;1661476;84;21031;-66
2022/04/24 09:20:34;;;;;;;15.48;9.70;;;;;;;19.45;60.58;152541.91;1690658;83;20974;-66
2022/04/24 09:23:04;;;;;;;14.40;9.75;;;;;;;19.66;60.09;152594.14;1691141;83;21133;-68
2022/04/24 09:25:41;;;;;;;14.33;9.20;;;;;;;19.85;59.60;152642.48;1690636;83;21117;-64
2022/04/24 09:28:08;;;;;;;15.72;8.85;;;;;;;20.00;58.87;152681.69;1690434;83;21503;-64
2022/04/24 09:30:36;;;;;;;15.58;9.65;;;;;;;20.14;58.48;152715.66;1690855;84;21061;-65
2022/04/24 09:33:11;;;;;;;12.55;8.75;;;;;;;20.28;58.00;152750.92;1690443;83;21551;-64
2022/04/24 09:35:42;;;;;;;14.00;8.53;;;;;;;20.45;57.35;152794.06;1690909;83;21590;-65
2022/04/24 09:38:13;;;;;;;18.40;10.23;;;;;;;20.64;56.89;152841.06;1690248;84;21046;-66
2022/04/24 09:40:45;;;;;;;15.00;9.45;;;;;;;20.79;56.41;152880.28;1690779;84;21033;-65
2022/04/24 09:43:14;;;;;;;16.00;8.88;;;;;;;20.81;56.23;152885.55;1690358;83;21333;-66
2022/04/24 09:45:42;;;;;;;12.82;8.10;;;;;;;20.85;55.92;152895.98;1690423;83;21101;-66
2022/04/24 09:48:15;;;;;;;11.30;7.35;;;;;;;20.89;55.68;152905.16;1690798;83;21037;-65
2022/04/24 09:50:42;;;;;;;14.58;8.73;;;;;;;20.95;55.38;152920.81;1690251;83;21049;-65
2022/04/24 09:53:15;;;;;;;12.60;9.00;;;;;;;21.03;55.07;152941.75;1690639;84;21073;-66
2022/04/24 09:55:43;;;;;;;13.68;8.70;;;;;;;21.11;54.85;152961.38;1690829;83;21037;-65
2022/04/24 09:58:12;;;;;;;13.43;8.58;;;;;;;21.16;54.49;152974.42;1690498;84;21049;-65
2022/04/24 10:00:41;;;;;;;13.88;9.15;;;;;;;21.18;54.38;152979.66;1690954;83;21077;-65
2022/04/24 10:03:12;;;;;;;17.40;10.18;;;;;;;21.18;54.10;152979.66;1689486;83;20994;-65
2022/04/24 10:05:42;;;;;;;14.07;10.28;;;;;;;21.17;53.78;152977.05;1659082;85;21109;-65
2022/04/24 10:08:09;;;;;;;15.60;10.48;;;;;;;21.12;53.68;152963.98;1685602;84;20997;-66
2022/04/24 10:10:37;;;;;;;15.53;10.55;;;;;;;20.99;53.57;152929.98;1685996;85;21066;-66
2022/04/24 10:13:10;;;;;;;17.05;10.58;;;;;;;20.86;53.76;152897.31;1685652;84;21160;-66
2022/04/24 10:15:47;;;;;;;16.62;11.05;;;;;;;20.72;53.98;152862.00;1685770;84;21640;-66
2022/04/24 10:18:42;;;;;;;18.25;10.50;;;;;;;20.57;54.21;152825.39;1685538;84;21077;-65
2022/04/24 10:21:40;;;;;;;16.62;10.40;;;;;;;20.43;54.69;152788.80;1685395;84;21117;-68
2022/04/24 10:24:12;;;;;;;16.82;9.85;;;;;;;20.29;55.03;152753.53;1685528;84;21120;-67
2022/04/24 10:26:39;;;;;;;14.85;10.20;;;;;;;20.14;55.44;152717.00;1686226;85;21165;-66
2022/04/24 10:29:09;;;;;;;14.58;9.68;;;;;;;20.00;55.66;152680.41;1685531;84;21057;-66
2022/04/24 10:31:45;;;;;;;15.70;10.23;;;;;;;19.88;56.11;152650.31;1685756;84;21691;-66
2022/04/24 10:34:14;;;;;;;17.07;10.50;;;;;;;19.89;56.51;152654.27;1685388;84;20993;-66
2022/04/24 10:36:55;;;;;;;18.77;10.10;;;;;;;19.97;56.60;152673.86;1685859;84;21493;-67
2022/04/24 10:39:30;;;;;;;18.95;9.70;;;;;;;19.99;56.53;152679.08;1678567;85;21499;-67
2022/04/24 10:42:01;;;;;;;14.65;9.48;;;;;;;19.97;56.37;152673.86;1685969;85;21069;-64
2022/04/24 10:44:29;;;;;;;15.35;10.32;;;;;;;19.97;56.27;152672.58;1683420;85;21102;-65
2022/04/24 10:46:59;;;;;;;13.28;8.90;;;;;;;20.00;56.06;152680.41;1685623;84;20967;-64
2022/04/24 10:49:34;;;;;;;14.43;8.73;;;;;;;20.01;56.13;152683.02;1685580;84;21060;-66
2022/04/24 10:52:03;;;;;;;14.68;9.25;;;;;;;20.00;56.07;152681.69;1685852;84;21915;-66
2022/04/24 10:54:35;;;;;;;16.73;10.03;;;;;;;19.98;55.95;152676.47;1685677;84;22115;-67
2022/04/24 10:57:20;;;;;;;12.88;8.63;;;;;;;19.94;55.94;152666.03;1685344;84;21424;-65
2022/04/24 10:59:52;;;;;;;14.90;8.65;;;;;;;19.89;55.68;152652.92;1684188;84;21475;-66
2022/04/24 11:02:33;;;;;;;11.77;8.50;;;;;;;19.82;55.49;152635.94;1685846;84;21005;-67
2022/04/24 11:05:06;;;;;;;13.20;7.83;;;;;;;19.76;55.48;152621.56;1683150;84;21058;-67
2022/04/24 11:07:35;;;;;;;12.90;8.20;;;;;;;19.68;55.40;152600.69;1683305;85;21021;-67
2022/04/24 11:10:09;;;;;;;14.85;8.88;;;;;;;19.66;55.59;152594.14;1682184;83;21021;-66
2022/04/24 11:12:39;;;;;;;15.75;8.95;;;;;;;19.64;55.61;152590.25;1682593;83;21499;-67
2022/04/24 11:15:11;;;;;;;15.83;8.90;;;;;;;19.59;55.75;152577.20;1681754;85;21120;-66
2022/04/24 11:17:38;;;;;;;16.75;8.55;;;;;;;19.54;55.99;152565.44;1682513;85;21629;-67
2022/04/24 11:20:10;;;;;;;16.20;9.05;;;;;;;19.51;56.44;152557.62;1681899;83;21581;-67
2022/04/24 11:22:52;;;;;;;13.30;8.70;;;;;;;19.46;56.66;152545.84;1683159;83;21507;-67
2022/04/24 11:25:22;;;;;;;14.70;8.60;;;;;;;19.43;56.85;152538.03;1678142;83;21065;-66